createdAt,value
2023-05-10T00:00:28.958Z,94243.00
2023-05-10T00:01:29.056Z,94243.00
2023-05-10T00:02:29.171Z,94245.00
2023-05-10T00:03:29.204Z,94243.00
2023-05-10T00:04:29.263Z,94239.00
2023-05-10T00:05:29.261Z,94239.00
2023-05-10T00:06:29.295Z,94239.00
2023-05-10T00:07:29.450Z,94239.00
2023-05-10T00:08:29.450Z,94239.00
2023-05-10T00:09:29.526Z,94239.00
2023-05-10T00:10:29.598Z,94239.00
2023-05-10T00:11:29.646Z,94241.00
2023-05-10T00:12:29.686Z,94241.00
2023-05-10T00:13:29.756Z,94241.00
2023-05-10T00:14:29.769Z,94243.00
2023-05-10T00:15:29.804Z,94243.00
2023-05-10T00:16:29.910Z,94239.00
2023-05-10T00:17:29.976Z,94241.00
2023-05-10T00:18:30.036Z,94241.00
2023-05-10T00:19:30.153Z,94239.00
2023-05-10T00:20:30.151Z,94239.00
2023-05-10T00:21:30.210Z,94239.00
2023-05-10T00:22:30.265Z,94241.00
2023-05-10T00:23:30.304Z,94239.00
2023-05-10T00:24:30.376Z,94241.00
2023-05-10T00:25:30.447Z,94241.00
2023-05-10T00:26:30.506Z,94239.00
2023-05-10T00:27:30.570Z,94241.00
2023-05-10T00:28:30.619Z,94241.00
2023-05-10T00:29:30.748Z,94241.00
2023-05-10T00:30:30.739Z,94241.00
2023-05-10T00:31:30.783Z,94245.00
2023-05-10T00:32:30.914Z,94243.00
2023-05-10T00:33:30.921Z,94245.00
2023-05-10T00:34:30.966Z,94243.00
2023-05-10T00:35:31.039Z,94245.00
2023-05-10T00:36:31.124Z,94245.00
2023-05-10T00:37:31.168Z,94247.00
2023-05-10T00:38:31.196Z,94247.00
2023-05-10T00:39:31.263Z,94247.00
2023-05-10T00:40:31.305Z,94249.00
2023-05-10T00:41:31.377Z,94249.00
2023-05-10T00:42:31.438Z,94251.00
2023-05-10T00:43:31.487Z,94251.00
2023-05-10T00:44:31.559Z,94249.00
2023-05-10T00:45:31.584Z,94253.00
2023-05-10T00:46:31.698Z,94249.00
2023-05-10T00:47:31.711Z,94249.00
2023-05-10T00:48:32.092Z,94251.00
2023-05-10T00:49:31.870Z,94251.00
2023-05-10T00:50:31.904Z,94253.00
2023-05-10T00:51:31.974Z,94255.00
2023-05-10T00:52:32.024Z,94253.00
2023-05-10T00:53:32.428Z,94255.00
2023-05-10T00:54:32.121Z,94257.00
2023-05-10T00:55:32.217Z,94257.00
2023-05-10T00:56:32.268Z,94255.00
2023-05-10T00:57:32.380Z,94253.00
2023-05-10T00:58:32.414Z,94257.00
2023-05-10T00:59:32.454Z,94253.00
2023-05-10T01:00:32.534Z,94255.00
2023-05-10T01:01:32.601Z,94253.00
2023-05-10T01:02:32.681Z,94257.00
2023-05-10T01:03:32.747Z,94251.00
2023-05-10T01:04:32.764Z,94253.00
2023-05-10T01:05:32.817Z,94249.00
2023-05-10T01:06:32.848Z,94253.00
2023-05-10T01:07:32.909Z,94253.00
2023-05-10T01:08:33.118Z,94251.00
2023-05-10T01:09:32.968Z,94251.00
2023-05-10T01:10:33.066Z,94253.00
2023-05-10T01:11:33.094Z,94257.00
2023-05-10T01:12:33.156Z,94257.00
2023-05-10T01:13:33.169Z,94255.00
2023-05-10T01:14:33.234Z,94257.00
2023-05-10T01:15:33.285Z,94257.00
2023-05-10T01:16:33.481Z,94257.00
2023-05-10T01:17:33.511Z,94255.00
2023-05-10T01:18:33.508Z,94255.00
2023-05-10T01:19:33.480Z,94253.00
2023-05-10T01:20:33.568Z,94251.00
2023-05-10T01:21:33.542Z,94255.00
2023-05-10T01:22:33.572Z,94253.00
2023-05-10T01:23:33.722Z,94255.00
2023-05-10T01:24:33.622Z,94255.00
2023-05-10T01:25:33.660Z,94255.00
2023-05-10T01:26:33.746Z,94253.00
2023-05-10T01:27:33.812Z,94253.00
2023-05-10T01:28:33.822Z,94251.00
2023-05-10T01:29:33.832Z,94247.00
2023-05-10T01:30:33.907Z,94247.00
2023-05-10T01:31:33.846Z,94247.00
2023-05-10T01:32:33.872Z,94245.00
2023-05-10T01:33:33.887Z,94247.00
2023-05-10T01:34:34.010Z,94247.00
2023-05-10T01:35:34.028Z,94247.00
2023-05-10T01:36:34.007Z,94247.00
2023-05-10T01:37:34.056Z,94249.00
2023-05-10T01:38:34.040Z,94247.00
2023-05-10T01:39:34.029Z,94247.00
2023-05-10T01:40:34.034Z,94245.00
2023-05-10T01:41:34.165Z,94245.00
2023-05-10T01:42:34.120Z,94247.00
2023-05-10T01:43:34.164Z,94247.00
2023-05-10T01:44:34.136Z,94245.00
2023-05-10T01:45:34.246Z,94247.00
2023-05-10T01:46:34.191Z,94247.00
2023-05-10T01:47:34.216Z,94249.00
2023-05-10T01:48:34.186Z,94249.00
2023-05-10T01:49:34.205Z,94249.00
2023-05-10T01:50:34.302Z,94251.00
2023-05-10T01:51:34.251Z,94253.00
2023-05-10T01:52:34.292Z,94253.00
2023-05-10T01:53:34.265Z,94255.00
2023-05-10T01:54:34.340Z,94253.00
2023-05-10T01:55:34.303Z,94253.00
2023-05-10T01:56:34.279Z,94255.00
2023-05-10T01:57:34.285Z,94257.00
2023-05-10T01:58:34.268Z,94261.00
2023-05-10T01:59:34.280Z,94259.00
2023-05-10T02:00:34.400Z,94261.00
2023-05-10T02:01:34.447Z,94262.00
2023-05-10T02:02:34.617Z,94262.00
2023-05-10T02:03:34.674Z,94264.00
2023-05-10T02:04:34.695Z,94266.00
2023-05-10T02:05:34.637Z,94266.00
2023-05-10T02:06:34.626Z,94268.00
2023-05-10T02:07:34.661Z,94268.00
2023-05-10T02:08:34.701Z,94268.00
2023-05-10T02:09:34.747Z,94270.00
2023-05-10T02:10:34.740Z,94266.00
2023-05-10T02:11:34.746Z,94270.00
2023-05-10T02:12:34.800Z,94270.00
2023-05-10T02:13:34.757Z,94272.00
2023-05-10T02:14:34.740Z,94272.00
2023-05-10T02:15:34.799Z,94272.00
2023-05-10T02:16:34.913Z,94274.00
2023-05-10T02:17:35.014Z,94276.00
2023-05-10T02:18:35.055Z,94276.00
2023-05-10T02:19:35.045Z,94276.00
2023-05-10T02:20:35.065Z,94276.00
2023-05-10T02:21:35.055Z,94278.00
2023-05-10T02:22:35.036Z,94278.00
2023-05-10T02:23:35.055Z,94280.00
2023-05-10T02:24:35.080Z,94280.00
2023-05-10T02:25:35.199Z,94276.00
2023-05-10T02:26:35.273Z,94278.00
2023-05-10T02:27:35.370Z,94278.00
2023-05-10T02:28:35.482Z,94280.00
2023-05-10T02:29:35.523Z,94280.00
2023-05-10T02:30:35.648Z,94280.00
2023-05-10T02:31:35.729Z,94280.00
2023-05-10T02:32:35.720Z,94280.00
2023-05-10T02:33:35.708Z,94282.00
2023-05-10T02:34:35.726Z,94284.00
2023-05-10T02:35:35.701Z,94286.00
2023-05-10T02:36:35.745Z,94286.00
2023-05-10T02:37:35.799Z,94286.00
2023-05-10T02:38:35.867Z,94286.00
2023-05-10T02:39:35.948Z,94284.00
2023-05-10T02:40:36.046Z,94286.00
2023-05-10T02:41:36.052Z,94284.00
2023-05-10T02:42:36.058Z,94284.00
2023-05-10T02:43:36.043Z,94284.00
2023-05-10T02:44:36.030Z,94284.00
2023-05-10T02:45:36.052Z,94284.00
2023-05-10T02:46:36.122Z,94286.00
2023-05-10T02:47:36.242Z,94288.00
2023-05-10T02:48:36.290Z,94286.00
2023-05-10T02:49:36.369Z,94288.00
2023-05-10T02:50:36.393Z,94288.00
2023-05-10T02:51:36.373Z,94290.00
2023-05-10T02:52:36.370Z,94288.00
2023-05-10T02:53:36.402Z,94288.00
2023-05-10T02:54:36.432Z,94290.00
2023-05-10T02:55:36.513Z,94290.00
2023-05-10T02:56:36.625Z,94288.00
2023-05-10T02:57:36.723Z,94288.00
2023-05-10T02:58:36.755Z,94288.00
2023-05-10T02:59:36.856Z,94290.00
2023-05-10T03:00:36.860Z,94292.00
2023-05-10T03:01:36.849Z,94290.00
2023-05-10T03:02:36.884Z,94292.00
2023-05-10T03:03:36.872Z,94292.00
2023-05-10T03:04:36.908Z,94288.00
2023-05-10T03:05:36.910Z,94292.00
2023-05-10T03:06:36.879Z,94292.00
2023-05-10T03:07:36.885Z,94292.00
2023-05-10T03:08:36.884Z,94292.00
2023-05-10T03:09:36.881Z,94288.00
2023-05-10T03:10:36.881Z,94290.00
2023-05-10T03:11:36.913Z,94288.00
2023-05-10T03:12:36.867Z,94290.00
2023-05-10T03:13:36.917Z,94290.00
2023-05-10T03:14:36.874Z,94288.00
2023-05-10T03:15:36.971Z,94286.00
2023-05-10T03:16:36.986Z,94288.00
2023-05-10T03:17:37.044Z,94292.00
2023-05-10T03:18:36.948Z,94290.00
2023-05-10T03:19:36.963Z,94290.00
2023-05-10T03:20:36.962Z,94290.00
2023-05-10T03:21:37.084Z,94296.00
2023-05-10T03:22:37.183Z,94292.00
2023-05-10T03:23:37.290Z,94294.00
2023-05-10T03:24:37.332Z,94294.00
2023-05-10T03:25:37.330Z,94296.00
2023-05-10T03:26:37.335Z,94296.00
2023-05-10T03:27:37.359Z,94302.00
2023-05-10T03:28:37.378Z,94300.00
2023-05-10T03:29:37.345Z,94300.00
2023-05-10T03:30:37.449Z,94302.00
2023-05-10T03:31:37.474Z,94300.00
2023-05-10T03:32:37.489Z,94302.00
2023-05-10T03:33:37.478Z,94302.00
2023-05-10T03:34:37.433Z,94302.00
2023-05-10T03:35:37.469Z,94302.00
2023-05-10T03:36:37.542Z,94304.00
2023-05-10T03:37:37.629Z,94306.00
2023-05-10T03:38:37.727Z,94306.00
2023-05-10T03:39:37.845Z,94300.00
2023-05-10T03:40:37.817Z,94302.00
2023-05-10T03:41:37.881Z,94302.00
2023-05-10T03:42:37.856Z,94304.00
2023-05-10T03:43:37.833Z,94306.00
2023-05-10T03:44:37.859Z,94306.00
2023-05-10T03:45:37.922Z,94308.00
2023-05-10T03:46:37.988Z,94309.00
2023-05-10T03:47:37.983Z,94309.00
2023-05-10T03:48:37.946Z,94309.00
2023-05-10T03:49:37.921Z,94311.00
2023-05-10T03:50:37.957Z,94313.00
2023-05-10T03:51:38.088Z,94311.00
2023-05-10T03:52:38.272Z,94311.00
2023-05-10T03:53:38.175Z,94315.00
2023-05-10T03:54:38.186Z,94315.00
2023-05-10T03:55:38.159Z,94317.00
2023-05-10T03:56:38.169Z,94319.00
2023-05-10T03:57:38.219Z,94317.00
2023-05-10T03:58:38.210Z,94317.00
2023-05-10T03:59:38.193Z,94317.00
2023-05-10T04:00:38.201Z,94317.00
2023-05-10T04:01:38.259Z,94317.00
2023-05-10T04:02:38.523Z,94319.00
2023-05-10T04:03:38.290Z,94319.00
2023-05-10T04:04:38.252Z,94319.00
2023-05-10T04:05:38.250Z,94319.00
2023-05-10T04:06:38.284Z,94319.00
2023-05-10T04:07:38.264Z,94319.00
2023-05-10T04:08:38.286Z,94319.00
2023-05-10T04:09:38.347Z,94317.00
2023-05-10T04:10:38.344Z,94317.00
2023-05-10T04:11:38.329Z,94317.00
2023-05-10T04:12:38.329Z,94317.00
2023-05-10T04:13:38.388Z,94317.00
2023-05-10T04:14:38.456Z,94319.00
2023-05-10T04:15:38.451Z,94319.00
2023-05-10T04:16:38.479Z,94321.00
2023-05-10T04:17:38.491Z,94321.00
2023-05-10T04:18:38.446Z,94321.00
2023-05-10T04:19:38.489Z,94323.00
2023-05-10T04:20:38.485Z,94319.00
2023-05-10T04:21:38.496Z,94321.00
2023-05-10T04:22:38.525Z,94321.00
2023-05-10T04:23:38.547Z,94323.00
2023-05-10T04:24:38.602Z,94321.00
2023-05-10T04:25:38.595Z,94321.00
2023-05-10T04:26:38.637Z,94323.00
2023-05-10T04:27:38.642Z,94321.00
2023-05-10T04:28:38.731Z,94327.00
2023-05-10T04:29:38.728Z,94327.00
2023-05-10T04:30:38.759Z,94327.00
2023-05-10T04:31:38.733Z,94329.00
2023-05-10T04:32:38.807Z,94329.00
2023-05-10T04:33:38.797Z,94327.00
2023-05-10T04:34:38.816Z,94327.00
2023-05-10T04:35:38.843Z,94325.00
2023-05-10T04:36:38.981Z,94325.00
2023-05-10T04:37:38.847Z,94327.00
2023-05-10T04:38:38.879Z,94325.00
2023-05-10T04:39:40.305Z,94319.00
2023-05-10T04:40:38.903Z,94323.00
2023-05-10T04:41:38.878Z,94323.00
2023-05-10T04:42:38.892Z,94323.00
2023-05-10T04:43:38.916Z,94323.00
2023-05-10T04:44:38.873Z,94325.00
2023-05-10T04:45:38.867Z,94325.00
2023-05-10T04:46:38.910Z,94325.00
2023-05-10T04:47:38.884Z,94325.00
2023-05-10T04:48:38.890Z,94327.00
2023-05-10T04:49:38.869Z,94327.00
2023-05-10T04:50:38.856Z,94329.00
2023-05-10T04:51:38.848Z,94329.00
2023-05-10T04:52:38.847Z,94329.00
2023-05-10T04:53:38.832Z,94329.00
2023-05-10T04:54:38.844Z,94329.00
2023-05-10T04:55:38.802Z,94329.00
2023-05-10T04:56:38.845Z,94329.00
2023-05-10T04:57:38.808Z,94329.00
2023-05-10T04:58:38.814Z,94329.00
2023-05-10T04:59:38.863Z,94329.00
2023-05-10T05:00:38.762Z,94329.00
2023-05-10T05:01:38.796Z,94333.00
2023-05-10T05:02:38.823Z,94329.00
2023-05-10T05:03:38.844Z,94331.00
2023-05-10T05:04:38.752Z,94333.00
2023-05-10T05:05:38.787Z,94337.00
2023-05-10T05:06:38.757Z,94337.00
2023-05-10T05:07:38.709Z,94339.00
2023-05-10T05:08:38.716Z,94341.00
2023-05-10T05:09:38.740Z,94343.00
2023-05-10T05:10:38.744Z,94345.00
2023-05-10T05:11:38.690Z,94347.00
2023-05-10T05:12:38.708Z,94343.00
2023-05-10T05:13:38.715Z,94347.00
2023-05-10T05:14:38.684Z,94345.00
2023-05-10T05:15:38.665Z,94349.00
2023-05-10T05:16:38.739Z,94347.00
2023-05-10T05:17:38.743Z,94349.00
2023-05-10T05:18:38.661Z,94349.00
2023-05-10T05:19:38.647Z,94349.00
2023-05-10T05:20:38.661Z,94351.00
2023-05-10T05:21:38.645Z,94351.00
2023-05-10T05:22:38.644Z,94351.00
2023-05-10T05:23:38.634Z,94351.00
2023-05-10T05:24:38.608Z,94353.00
2023-05-10T05:25:38.592Z,94351.00
2023-05-10T05:26:38.599Z,94355.00
2023-05-10T05:27:38.638Z,94355.00
2023-05-10T05:28:38.589Z,94355.00
2023-05-10T05:29:38.610Z,94362.00
2023-05-10T05:30:38.576Z,94362.00
2023-05-10T05:31:38.627Z,94364.00
2023-05-10T05:32:38.610Z,94362.00
2023-05-10T05:33:38.587Z,94364.00
2023-05-10T05:34:38.589Z,94366.00
2023-05-10T05:35:38.561Z,94366.00
2023-05-10T05:36:38.539Z,94370.00
2023-05-10T05:37:38.512Z,94370.00
2023-05-10T05:38:38.599Z,94368.00
2023-05-10T05:39:38.536Z,94368.00
2023-05-10T05:40:38.539Z,94368.00
2023-05-10T05:41:38.728Z,94370.00
2023-05-10T05:42:38.533Z,94368.00
2023-05-10T05:43:38.738Z,94368.00
2023-05-10T05:44:38.464Z,94370.00
2023-05-10T05:45:38.463Z,94374.00
2023-05-10T05:46:38.477Z,94372.00
2023-05-10T05:47:38.476Z,94372.00
2023-05-10T05:48:38.704Z,94370.00
2023-05-10T05:49:38.719Z,94372.00
2023-05-10T05:50:38.739Z,94376.00
2023-05-10T05:51:38.419Z,94374.00
2023-05-10T05:52:38.445Z,94378.00
2023-05-10T05:53:38.727Z,94380.00
2023-05-10T05:54:38.424Z,94376.00
2023-05-10T05:55:38.423Z,94376.00
2023-05-10T05:56:38.387Z,94376.00
2023-05-10T05:57:38.376Z,94372.00
2023-05-10T05:58:38.369Z,94376.00
2023-05-10T05:59:38.387Z,94374.00
2023-05-10T06:00:38.400Z,94378.00
2023-05-10T06:01:38.351Z,94376.00
2023-05-10T06:02:38.526Z,94374.00
2023-05-10T06:03:38.371Z,94378.00
2023-05-10T06:04:39.193Z,94376.00
2023-05-10T06:05:38.526Z,94376.00
2023-05-10T06:06:38.717Z,94380.00
2023-05-10T06:07:38.610Z,94378.00
2023-05-10T06:08:38.668Z,94378.00
2023-05-10T06:09:38.764Z,94378.00
2023-05-10T06:10:38.815Z,94378.00
2023-05-10T06:11:39.210Z,94380.00
2023-05-10T06:12:38.875Z,94380.00
2023-05-10T06:13:38.952Z,94380.00
2023-05-10T06:14:38.977Z,94380.00
2023-05-10T06:15:39.055Z,94380.00
2023-05-10T06:16:39.235Z,94380.00
2023-05-10T06:17:39.256Z,94384.00
2023-05-10T06:18:39.240Z,94384.00
2023-05-10T06:19:39.324Z,94384.00
2023-05-10T06:20:39.420Z,94384.00
2023-05-10T06:21:39.449Z,94386.00
2023-05-10T06:22:39.490Z,94388.00
2023-05-10T06:23:39.556Z,94388.00
2023-05-10T06:24:39.593Z,94390.00
2023-05-10T06:25:39.643Z,94392.00
2023-05-10T06:26:39.748Z,94394.00
2023-05-10T06:27:40.234Z,94394.00
2023-05-10T06:28:39.876Z,94394.00
2023-05-10T06:29:39.905Z,94398.00
2023-05-10T06:30:39.980Z,94398.00
2023-05-10T06:31:40.015Z,94398.00
2023-05-10T06:32:40.100Z,94396.00
2023-05-10T06:33:40.097Z,94398.00
2023-05-10T06:34:40.148Z,94394.00
2023-05-10T06:35:40.183Z,94398.00
2023-05-10T06:36:40.279Z,94394.00
2023-05-10T06:37:40.347Z,94398.00
2023-05-10T06:38:40.763Z,94396.00
2023-05-10T06:39:40.438Z,94398.00
2023-05-10T06:40:40.524Z,94396.00
2023-05-10T06:41:40.538Z,94398.00
2023-05-10T06:42:40.582Z,94396.00
2023-05-10T06:43:40.647Z,94396.00
2023-05-10T06:44:40.662Z,94400.00
2023-05-10T06:45:40.605Z,94400.00
2023-05-10T06:46:40.707Z,94402.00
2023-05-10T06:47:40.826Z,94400.00
2023-05-10T06:48:41.251Z,94396.00
2023-05-10T06:49:41.310Z,94398.00
2023-05-10T06:50:41.274Z,94396.00
2023-05-10T06:51:40.916Z,94396.00
2023-05-10T06:52:40.940Z,94396.00
2023-05-10T06:53:41.020Z,94396.00
2023-05-10T06:54:41.262Z,94396.00
2023-05-10T06:55:41.270Z,94394.00
2023-05-10T06:56:41.236Z,94394.00
2023-05-10T06:57:41.772Z,94394.00
2023-05-10T06:58:41.765Z,94396.00
2023-05-10T06:59:41.406Z,94396.00
2023-05-10T07:00:41.543Z,94396.00
2023-05-10T07:01:41.528Z,94394.00
2023-05-10T07:02:41.528Z,94394.00
2023-05-10T07:03:41.744Z,94396.00
2023-05-10T07:04:41.773Z,94394.00
2023-05-10T07:05:41.831Z,94396.00
2023-05-10T07:06:41.769Z,94392.00
2023-05-10T07:07:41.731Z,94398.00
2023-05-10T07:08:41.800Z,94396.00
2023-05-10T07:09:41.887Z,94396.00
2023-05-10T07:10:42.294Z,94398.00
2023-05-10T07:11:41.890Z,94396.00
2023-05-10T07:12:41.982Z,94398.00
2023-05-10T07:13:42.032Z,94396.00
2023-05-10T07:14:42.035Z,94398.00
2023-05-10T07:15:42.237Z,94396.00
2023-05-10T07:16:42.173Z,94396.00
2023-05-10T07:17:44.144Z,94392.00
2023-05-10T07:18:42.352Z,94394.00
2023-05-10T07:19:42.106Z,94394.00
2023-05-10T07:20:42.137Z,94396.00
2023-05-10T07:21:42.073Z,94396.00
2023-05-10T07:22:42.277Z,94398.00
2023-05-10T07:23:43.630Z,94396.00
2023-05-10T07:24:42.038Z,94398.00
2023-05-10T07:25:42.092Z,94404.00
2023-05-10T07:26:42.073Z,94402.00
2023-05-10T07:27:42.062Z,94406.00
2023-05-10T07:28:42.278Z,94404.00
2023-05-10T07:29:42.005Z,94402.00
2023-05-10T07:30:42.036Z,94404.00
2023-05-10T07:31:42.035Z,94406.00
2023-05-10T07:32:42.131Z,94406.00
2023-05-10T07:33:42.112Z,94404.00
2023-05-10T07:34:42.006Z,94402.00
2023-05-10T07:35:42.261Z,94402.00
2023-05-10T07:36:42.049Z,94400.00
2023-05-10T07:37:42.272Z,94404.00
2023-05-10T07:38:41.974Z,94400.00
2023-05-10T07:39:42.362Z,94400.00
2023-05-10T07:40:42.400Z,94402.00
2023-05-10T07:41:42.018Z,94400.00
2023-05-10T07:42:41.966Z,94406.00
2023-05-10T07:43:41.975Z,94402.00
2023-05-10T07:44:41.979Z,94404.00
2023-05-10T07:45:41.927Z,94408.00
2023-05-10T07:46:41.934Z,94408.00
2023-05-10T07:47:42.015Z,94408.00
2023-05-10T07:48:41.910Z,94409.00
2023-05-10T07:49:41.885Z,94409.00
2023-05-10T07:50:41.947Z,94408.00
2023-05-10T07:51:41.920Z,94415.00
2023-05-10T07:52:41.875Z,94413.00
2023-05-10T07:53:41.872Z,94415.00
2023-05-10T07:54:41.890Z,94417.00
2023-05-10T07:55:41.844Z,94417.00
2023-05-10T07:56:41.872Z,94417.00
2023-05-10T07:57:41.892Z,94415.00
2023-05-10T07:58:41.820Z,94417.00
2023-05-10T07:59:41.837Z,94413.00
2023-05-10T08:00:41.803Z,94415.00
2023-05-10T08:01:41.824Z,94415.00
2023-05-10T08:02:41.906Z,94415.00
2023-05-10T08:03:41.909Z,94415.00
2023-05-10T08:04:41.955Z,94413.00
2023-05-10T08:05:41.815Z,94413.00
2023-05-10T08:06:42.338Z,94415.00
2023-05-10T08:07:41.779Z,94415.00
2023-05-10T08:08:41.780Z,94417.00
2023-05-10T08:09:41.792Z,94417.00
2023-05-10T08:10:41.770Z,94419.00
2023-05-10T08:11:42.331Z,94419.00
2023-05-10T08:12:41.735Z,94423.00
2023-05-10T08:13:41.806Z,94425.00
2023-05-10T08:14:41.770Z,94425.00
2023-05-10T08:15:41.796Z,94425.00
2023-05-10T08:16:41.735Z,94427.00
2023-05-10T08:17:41.764Z,94423.00
2023-05-10T08:18:41.768Z,94425.00
2023-05-10T08:19:41.697Z,94427.00
2023-05-10T08:20:41.669Z,94425.00
2023-05-10T08:21:41.714Z,94429.00
2023-05-10T08:22:41.658Z,94429.00
2023-05-10T08:23:41.671Z,94427.00
2023-05-10T08:24:41.675Z,94429.00
2023-05-10T08:25:41.673Z,94425.00
2023-05-10T08:26:41.704Z,94427.00
2023-05-10T08:27:41.654Z,94427.00
2023-05-10T08:28:41.622Z,94433.00
2023-05-10T08:29:49.574Z,94431.00
2023-05-10T08:30:45.295Z,94429.00
2023-05-10T08:31:41.668Z,94431.00
2023-05-10T08:32:41.630Z,94431.00
2023-05-10T08:34:41.582Z,94437.00
2023-05-10T08:35:41.601Z,94433.00
2023-05-10T08:36:41.683Z,94433.00
2023-05-10T08:37:41.552Z,94437.00
2023-05-10T08:38:41.586Z,94437.00
2023-05-10T08:39:41.881Z,94435.00
2023-05-10T08:40:41.948Z,94437.00
2023-05-10T08:41:41.549Z,94441.00
2023-05-10T08:42:41.598Z,94445.00
2023-05-10T08:43:41.557Z,94443.00
2023-05-10T08:44:41.801Z,94447.00
2023-05-10T08:45:41.527Z,94443.00
2023-05-10T08:46:41.549Z,94443.00
2023-05-10T08:47:41.518Z,94447.00
2023-05-10T08:48:41.498Z,94445.00
2023-05-10T08:49:41.481Z,94449.00
2023-05-10T08:50:41.466Z,94451.00
2023-05-10T08:52:41.455Z,94451.00
2023-05-10T08:53:41.465Z,94447.00
2023-05-10T08:54:41.441Z,94453.00
2023-05-10T08:55:41.486Z,94451.00
2023-05-10T08:56:41.444Z,94451.00
2023-05-10T08:57:41.780Z,94455.00
2023-05-10T08:58:41.800Z,94457.00
2023-05-10T08:59:41.426Z,94453.00
2023-05-10T09:00:41.450Z,94453.00
2023-05-10T09:01:41.404Z,94457.00
2023-05-10T09:02:41.441Z,94457.00
2023-05-10T09:03:41.422Z,94457.00
2023-05-10T09:04:41.451Z,94459.00
2023-05-10T09:05:41.400Z,94459.00
2023-05-10T09:06:41.393Z,94460.00
2023-05-10T09:07:41.388Z,94460.00
2023-05-10T09:08:41.347Z,94462.00
2023-05-10T09:09:41.354Z,94462.00
2023-05-10T09:10:41.359Z,94462.00
2023-05-10T09:11:41.366Z,94460.00
2023-05-10T09:12:41.343Z,94460.00
2023-05-10T09:13:41.304Z,94462.00
2023-05-10T09:14:41.319Z,94460.00
2023-05-10T09:15:41.286Z,94459.00
2023-05-10T09:16:41.337Z,94462.00
2023-05-10T09:17:41.362Z,94462.00
2023-05-10T09:18:41.317Z,94464.00
2023-05-10T09:19:41.256Z,94466.00
2023-05-10T09:20:41.255Z,94470.00
2023-05-10T09:21:41.439Z,94464.00
2023-05-10T09:22:41.239Z,94466.00
2023-05-10T09:23:41.255Z,94468.00
2023-05-10T09:24:41.256Z,94470.00
2023-05-10T09:25:41.254Z,94470.00
2023-05-10T09:26:41.322Z,94468.00
2023-05-10T09:27:41.308Z,94464.00
2023-05-10T09:28:41.838Z,94464.00
2023-05-10T09:29:41.394Z,94466.00
2023-05-10T09:30:41.453Z,94468.00
2023-05-10T09:31:41.459Z,94466.00
2023-05-10T09:32:41.390Z,94470.00
2023-05-10T09:33:41.423Z,94466.00
2023-05-10T09:34:42.337Z,94466.00
2023-05-10T09:35:41.497Z,94470.00
2023-05-10T09:36:42.292Z,94466.00
2023-05-10T09:37:41.501Z,94466.00
2023-05-10T09:38:41.829Z,94464.00
2023-05-10T09:39:41.636Z,94466.00
2023-05-10T09:40:41.733Z,94462.00
2023-05-10T09:41:41.760Z,94466.00
2023-05-10T09:42:41.752Z,94464.00
2023-05-10T09:43:42.312Z,94464.00
2023-05-10T09:44:41.928Z,94464.00
2023-05-10T09:45:41.953Z,94464.00
2023-05-10T09:46:42.080Z,94459.00
2023-05-10T09:47:42.193Z,94460.00
2023-05-10T09:48:42.137Z,94460.00
2023-05-10T09:49:42.204Z,94459.00
2023-05-10T09:50:42.350Z,94462.00
2023-05-10T09:51:42.260Z,94460.00
2023-05-10T09:52:42.356Z,94460.00
2023-05-10T09:53:42.379Z,94460.00
2023-05-10T09:54:42.444Z,94462.00
2023-05-10T09:55:42.519Z,94464.00
2023-05-10T09:56:42.510Z,94464.00
2023-05-10T09:57:42.812Z,94459.00
2023-05-10T09:58:42.590Z,94459.00
2023-05-10T09:59:42.558Z,94460.00
2023-05-10T10:00:42.639Z,94460.00
2023-05-10T10:01:42.678Z,94462.00
2023-05-10T10:02:42.922Z,94460.00
2023-05-10T10:03:42.708Z,94462.00
2023-05-10T10:04:42.759Z,94464.00
2023-05-10T10:05:42.756Z,94462.00
2023-05-10T10:06:42.720Z,94460.00
2023-05-10T10:07:42.777Z,94462.00
2023-05-10T10:08:42.789Z,94460.00
2023-05-10T10:09:42.856Z,94460.00
2023-05-10T10:10:42.871Z,94462.00
2023-05-10T10:11:42.913Z,94460.00
2023-05-10T10:12:42.915Z,94460.00
2023-05-10T10:13:42.912Z,94462.00
2023-05-10T10:14:42.959Z,94462.00
2023-05-10T10:15:43.003Z,94462.00
2023-05-10T10:16:51.832Z,94466.00
2023-05-10T10:17:44.025Z,94462.00
2023-05-10T10:18:43.418Z,94466.00
2023-05-10T10:19:43.334Z,94466.00
2023-05-10T10:20:43.038Z,94468.00
2023-05-10T10:21:43.001Z,94466.00
2023-05-10T10:22:43.365Z,94466.00
2023-05-10T10:23:43.007Z,94464.00
2023-05-10T10:24:42.994Z,94468.00
2023-05-10T10:25:42.963Z,94470.00
2023-05-10T10:26:43.323Z,94468.00
2023-05-10T10:27:42.937Z,94468.00
2023-05-10T10:28:42.986Z,94472.00
2023-05-10T10:29:43.344Z,94470.00
2023-05-10T10:30:42.947Z,94470.00
2023-05-10T10:31:43.076Z,94470.00
2023-05-10T10:32:42.944Z,94468.00
2023-05-10T10:33:42.922Z,94472.00
2023-05-10T10:34:42.934Z,94472.00
2023-05-10T10:35:43.329Z,94470.00
2023-05-10T10:36:42.876Z,94468.00
2023-05-10T10:37:42.890Z,94468.00
2023-05-10T10:38:42.888Z,94468.00
2023-05-10T10:39:42.867Z,94464.00
2023-05-10T10:40:43.387Z,94464.00
2023-05-10T10:41:43.420Z,94468.00
2023-05-10T10:42:43.333Z,94466.00
2023-05-10T10:43:42.911Z,94468.00
2023-05-10T10:44:43.396Z,94468.00
2023-05-10T10:45:42.997Z,94468.00
2023-05-10T10:46:43.038Z,94470.00
2023-05-10T10:47:43.046Z,94468.00
2023-05-10T10:48:43.069Z,94468.00
2023-05-10T10:49:43.319Z,94466.00
2023-05-10T10:50:43.127Z,94466.00
2023-05-10T10:51:43.253Z,94466.00
2023-05-10T10:52:43.248Z,94466.00
2023-05-10T10:53:43.244Z,94464.00
2023-05-10T10:54:43.339Z,94462.00
2023-05-10T10:55:43.439Z,94466.00
2023-05-10T10:56:43.471Z,94464.00
2023-05-10T10:57:43.549Z,94464.00
2023-05-10T10:58:43.596Z,94464.00
2023-05-10T10:59:43.636Z,94462.00
2023-05-10T11:00:43.727Z,94466.00
2023-05-10T11:01:43.761Z,94464.00
2023-05-10T11:02:43.836Z,94460.00
2023-05-10T11:03:43.871Z,94462.00
2023-05-10T11:04:43.992Z,94462.00
2023-05-10T11:05:43.949Z,94464.00
2023-05-10T11:06:44.019Z,94460.00
2023-05-10T11:07:44.058Z,94460.00
2023-05-10T11:08:44.368Z,94460.00
2023-05-10T11:09:44.369Z,94462.00
2023-05-10T11:10:44.245Z,94460.00
2023-05-10T11:11:44.347Z,94460.00
2023-05-10T11:12:44.381Z,94460.00
2023-05-10T11:13:44.397Z,94460.00
2023-05-10T11:14:44.413Z,94457.00
2023-05-10T11:15:44.869Z,94455.00
2023-05-10T11:16:44.577Z,94453.00
2023-05-10T11:17:44.936Z,94451.00
2023-05-10T11:18:44.642Z,94453.00
2023-05-10T11:19:44.662Z,94451.00
2023-05-10T11:20:44.727Z,94453.00
2023-05-10T11:21:44.766Z,94451.00
2023-05-10T11:22:44.821Z,94453.00
2023-05-10T11:23:44.882Z,94451.00
2023-05-10T11:24:44.944Z,94449.00
2023-05-10T11:25:45.008Z,94453.00
2023-05-10T11:26:45.070Z,94453.00
2023-05-10T11:27:45.080Z,94455.00
2023-05-10T11:28:45.163Z,94453.00
2023-05-10T11:29:45.229Z,94455.00
2023-05-10T11:30:45.409Z,94457.00
2023-05-10T11:31:45.339Z,94457.00
2023-05-10T11:32:45.439Z,94455.00
2023-05-10T11:33:45.434Z,94451.00
2023-05-10T11:34:45.517Z,94451.00
2023-05-10T11:35:45.580Z,94449.00
2023-05-10T11:36:45.588Z,94451.00
2023-05-10T11:37:45.631Z,94451.00
2023-05-10T11:38:45.676Z,94449.00
2023-05-10T11:39:45.652Z,94449.00
2023-05-10T11:40:45.655Z,94451.00
2023-05-10T11:41:45.671Z,94451.00
2023-05-10T11:42:45.728Z,94451.00
2023-05-10T11:43:45.728Z,94451.00
2023-05-10T11:44:45.713Z,94453.00
2023-05-10T11:45:45.736Z,94451.00
2023-05-10T11:46:45.797Z,94453.00